sensor_id;sensor_type;location;lat;lon;timestamp;P1;durP1;ratioP1;P2;durP2;ratioP2
5955;SDS011;3004;48.080;11.600;2023-04-01T00:00:51;65.77;;;2.50;;
5955;SDS011;3004;48.080;11.600;2023-04-01T00:03:20;66.07;;;2.50;;
5955;SDS011;3004;48.080;11.600;2023-04-01T00:05:48;66.27;;;2.50;;
5955;SDS011;3004;48.080;11.600;2023-04-01T00:08:15;66.03;;;2.50;;
5955;SDS011;3004;48.080;11.600;2023-04-01T00:10:43;65.97;;;2.50;;
5955;SDS011;3004;48.080;11.600;2023-04-01T00:13:11;65.87;;;2.60;;
5955;SDS011;3004;48.080;11.600;2023-04-01T00:15:39;65.87;;;2.50;;
5955;SDS011;3004;48.080;11.600;2023-04-01T00:18:06;66.07;;;2.70;;
5955;SDS011;3004;48.080;11.600;2023-04-01T00:20:33;65.70;;;2.50;;
5955;SDS011;3004;48.080;11.600;2023-04-01T00:23:01;65.97;;;2.60;;
5955;SDS011;3004;48.080;11.600;2023-04-01T00:25:30;65.90;;;2.50;;
5955;SDS011;3004;48.080;11.600;2023-04-01T00:27:57;66.07;;;2.50;;
5955;SDS011;3004;48.080;11.600;2023-04-01T00:30:26;65.97;;;2.60;;
5955;SDS011;3004;48.080;11.600;2023-04-01T00:32:53;65.97;;;2.50;;
5955;SDS011;3004;48.080;11.600;2023-04-01T00:35:22;65.90;;;2.70;;
5955;SDS011;3004;48.080;11.600;2023-04-01T00:37:49;65.83;;;2.50;;
5955;SDS011;3004;48.080;11.600;2023-04-01T00:40:22;66.07;;;2.50;;
5955;SDS011;3004;48.080;11.600;2023-04-01T00:42:50;65.97;;;2.60;;
5955;SDS011;3004;48.080;11.600;2023-04-01T00:45:23;65.67;;;2.50;;
5955;SDS011;3004;48.080;11.600;2023-04-01T00:47:55;65.97;;;2.50;;
5955;SDS011;3004;48.080;11.600;2023-04-01T00:50:25;65.77;;;2.60;;
5955;SDS011;3004;48.080;11.600;2023-04-01T00:52:54;65.70;;;2.50;;
5955;SDS011;3004;48.080;11.600;2023-04-01T00:55:21;66.07;;;2.60;;
5955;SDS011;3004;48.080;11.600;2023-04-01T01:00:54;66.17;;;2.60;;
5955;SDS011;3004;48.080;11.600;2023-04-01T01:03:22;65.80;;;2.60;;
5955;SDS011;3004;48.080;11.600;2023-04-01T01:06:08;66.17;;;2.60;;
5955;SDS011;3004;48.080;11.600;2023-04-01T01:09:06;66.17;;;2.50;;
5955;SDS011;3004;48.080;11.600;2023-04-01T01:11:36;65.70;;;2.50;;
5955;SDS011;3004;48.080;11.600;2023-04-01T01:14:07;66.07;;;2.60;;
5955;SDS011;3004;48.080;11.600;2023-04-01T01:16:41;65.60;;;2.70;;
5955;SDS011;3004;48.080;11.600;2023-04-01T01:19:15;65.80;;;2.50;;
5955;SDS011;3004;48.080;11.600;2023-04-01T01:21:58;66.00;;;2.50;;
5955;SDS011;3004;48.080;11.600;2023-04-01T01:24:38;65.97;;;2.50;;
5955;SDS011;3004;48.080;11.600;2023-04-01T01:27:33;65.77;;;2.40;;
5955;SDS011;3004;48.080;11.600;2023-04-01T01:33:36;65.80;;;2.53;;
5955;SDS011;3004;48.080;11.600;2023-04-01T01:36:12;65.60;;;2.47;;
5955;SDS011;3004;48.080;11.600;2023-04-01T01:38:41;65.67;;;2.40;;
5955;SDS011;3004;48.080;11.600;2023-04-01T01:41:09;65.77;;;2.40;;
5955;SDS011;3004;48.080;11.600;2023-04-01T01:43:40;65.37;;;2.50;;
5955;SDS011;3004;48.080;11.600;2023-04-01T01:46:09;65.67;;;2.83;;
5955;SDS011;3004;48.080;11.600;2023-04-01T01:48:39;65.87;;;2.47;;
5955;SDS011;3004;48.080;11.600;2023-04-01T01:51:07;65.83;;;2.50;;
5955;SDS011;3004;48.080;11.600;2023-04-01T01:53:37;65.83;;;2.50;;
5955;SDS011;3004;48.080;11.600;2023-04-01T01:56:05;65.93;;;2.40;;
5955;SDS011;3004;48.080;11.600;2023-04-01T01:58:33;65.47;;;2.40;;
5955;SDS011;3004;48.080;11.600;2023-04-01T02:01:06;65.63;;;2.40;;
5955;SDS011;3004;48.080;11.600;2023-04-01T02:03:35;65.87;;;2.40;;
5955;SDS011;3004;48.080;11.600;2023-04-01T02:06:04;65.77;;;2.47;;
5955;SDS011;3004;48.080;11.600;2023-04-01T02:08:33;65.93;;;2.60;;
5955;SDS011;3004;48.080;11.600;2023-04-01T02:11:08;65.57;;;2.40;;
5955;SDS011;3004;48.080;11.600;2023-04-01T02:13:37;65.87;;;2.50;;
5955;SDS011;3004;48.080;11.600;2023-04-01T02:16:07;65.73;;;2.40;;
5955;SDS011;3004;48.080;11.600;2023-04-01T02:18:38;65.57;;;2.40;;
5955;SDS011;3004;48.080;11.600;2023-04-01T02:21:09;65.60;;;2.40;;
5955;SDS011;3004;48.080;11.600;2023-04-01T02:23:37;65.73;;;2.43;;
5955;SDS011;3004;48.080;11.600;2023-04-01T02:26:05;65.67;;;2.43;;
5955;SDS011;3004;48.080;11.600;2023-04-01T02:28:35;65.50;;;2.43;;
5955;SDS011;3004;48.080;11.600;2023-04-01T02:31:04;65.53;;;2.50;;
5955;SDS011;3004;48.080;11.600;2023-04-01T02:33:32;65.40;;;2.40;;
5955;SDS011;3004;48.080;11.600;2023-04-01T02:36:00;65.57;;;2.40;;
5955;SDS011;3004;48.080;11.600;2023-04-01T02:38:27;65.53;;;2.40;;
5955;SDS011;3004;48.080;11.600;2023-04-01T02:40:56;65.67;;;2.40;;
5955;SDS011;3004;48.080;11.600;2023-04-01T02:43:27;65.43;;;2.30;;
5955;SDS011;3004;48.080;11.600;2023-04-01T02:45:57;65.57;;;2.40;;
5955;SDS011;3004;48.080;11.600;2023-04-01T02:48:25;65.37;;;2.33;;
5955;SDS011;3004;48.080;11.600;2023-04-01T02:50:52;65.37;;;2.30;;
5955;SDS011;3004;48.080;11.600;2023-04-01T02:53:19;65.53;;;2.40;;
5955;SDS011;3004;48.080;11.600;2023-04-01T02:55:47;65.10;;;2.30;;
5955;SDS011;3004;48.080;11.600;2023-04-01T02:58:15;65.30;;;2.30;;
5955;SDS011;3004;48.080;11.600;2023-04-01T03:00:45;65.43;;;2.30;;
5955;SDS011;3004;48.080;11.600;2023-04-01T03:03:15;65.43;;;2.30;;
5955;SDS011;3004;48.080;11.600;2023-04-01T03:05:43;65.10;;;2.30;;
5955;SDS011;3004;48.080;11.600;2023-04-01T03:08:10;65.53;;;2.30;;
5955;SDS011;3004;48.080;11.600;2023-04-01T03:10:41;65.57;;;2.30;;
5955;SDS011;3004;48.080;11.600;2023-04-01T03:13:08;65.60;;;2.33;;
5955;SDS011;3004;48.080;11.600;2023-04-01T03:15:36;65.47;;;2.40;;
5955;SDS011;3004;48.080;11.600;2023-04-01T03:18:03;65.67;;;2.37;;
5955;SDS011;3004;48.080;11.600;2023-04-01T03:20:32;65.63;;;2.40;;
5955;SDS011;3004;48.080;11.600;2023-04-01T03:23:02;65.37;;;2.30;;
5955;SDS011;3004;48.080;11.600;2023-04-01T03:25:29;65.20;;;2.30;;
5955;SDS011;3004;48.080;11.600;2023-04-01T03:27:56;65.57;;;2.30;;
5955;SDS011;3004;48.080;11.600;2023-04-01T03:30:24;65.67;;;2.60;;
5955;SDS011;3004;48.080;11.600;2023-04-01T03:32:52;65.27;;;2.27;;
5955;SDS011;3004;48.080;11.600;2023-04-01T03:35:19;65.30;;;2.40;;
5955;SDS011;3004;48.080;11.600;2023-04-01T03:37:49;65.47;;;2.50;;
5955;SDS011;3004;48.080;11.600;2023-04-01T03:40:17;65.37;;;2.30;;
5955;SDS011;3004;48.080;11.600;2023-04-01T03:42:47;65.37;;;2.33;;
5955;SDS011;3004;48.080;11.600;2023-04-01T03:45:14;65.47;;;2.40;;
5955;SDS011;3004;48.080;11.600;2023-04-01T03:47:44;65.30;;;2.30;;
5955;SDS011;3004;48.080;11.600;2023-04-01T03:50:11;65.67;;;2.30;;
5955;SDS011;3004;48.080;11.600;2023-04-01T03:52:38;65.27;;;2.30;;
5955;SDS011;3004;48.080;11.600;2023-04-01T03:55:08;65.27;;;2.50;;
5955;SDS011;3004;48.080;11.600;2023-04-01T03:57:35;65.73;;;2.50;;
5955;SDS011;3004;48.080;11.600;2023-04-01T04:00:03;66.50;;;3.13;;
5955;SDS011;3004;48.080;11.600;2023-04-01T04:02:30;65.37;;;2.30;;
5955;SDS011;3004;48.080;11.600;2023-04-01T04:04:58;65.30;;;2.40;;
5955;SDS011;3004;48.080;11.600;2023-04-01T04:07:25;65.37;;;2.40;;
5955;SDS011;3004;48.080;11.600;2023-04-01T04:09:52;65.40;;;2.30;;
5955;SDS011;3004;48.080;11.600;2023-04-01T04:12:21;65.20;;;2.30;;
5955;SDS011;3004;48.080;11.600;2023-04-01T04:14:48;65.20;;;2.30;;
5955;SDS011;3004;48.080;11.600;2023-04-01T04:17:15;65.63;;;2.30;;
5955;SDS011;3004;48.080;11.600;2023-04-01T04:19:43;65.43;;;2.40;;
5955;SDS011;3004;48.080;11.600;2023-04-01T04:22:10;65.37;;;2.40;;
5955;SDS011;3004;48.080;11.600;2023-04-01T04:24:37;65.57;;;2.40;;
5955;SDS011;3004;48.080;11.600;2023-04-01T04:27:05;65.30;;;2.40;;
5955;SDS011;3004;48.080;11.600;2023-04-01T04:29:34;65.27;;;2.40;;
5955;SDS011;3004;48.080;11.600;2023-04-01T04:32:01;65.50;;;2.43;;
5955;SDS011;3004;48.080;11.600;2023-04-01T04:34:29;65.57;;;2.40;;
5955;SDS011;3004;48.080;11.600;2023-04-01T04:36:59;65.67;;;2.30;;
5955;SDS011;3004;48.080;11.600;2023-04-01T04:39:27;65.60;;;2.33;;
5955;SDS011;3004;48.080;11.600;2023-04-01T04:41:54;65.60;;;2.47;;
5955;SDS011;3004;48.080;11.600;2023-04-01T04:44:22;65.73;;;2.40;;
5955;SDS011;3004;48.080;11.600;2023-04-01T04:46:51;65.60;;;2.40;;
5955;SDS011;3004;48.080;11.600;2023-04-01T04:49:18;65.87;;;2.40;;
5955;SDS011;3004;48.080;11.600;2023-04-01T04:51:45;65.83;;;2.50;;
5955;SDS011;3004;48.080;11.600;2023-04-01T04:54:12;65.67;;;2.40;;
5955;SDS011;3004;48.080;11.600;2023-04-01T04:56:39;65.77;;;2.50;;
5955;SDS011;3004;48.080;11.600;2023-04-01T04:59:07;65.50;;;2.50;;
5955;SDS011;3004;48.080;11.600;2023-04-01T05:01:34;65.57;;;2.50;;
5955;SDS011;3004;48.080;11.600;2023-04-01T05:04:02;65.67;;;2.50;;
5955;SDS011;3004;48.080;11.600;2023-04-01T05:06:30;65.83;;;2.50;;
5955;SDS011;3004;48.080;11.600;2023-04-01T05:08:57;65.30;;;2.40;;
5955;SDS011;3004;48.080;11.600;2023-04-01T05:11:24;65.63;;;2.40;;
5955;SDS011;3004;48.080;11.600;2023-04-01T05:13:52;65.10;;;2.40;;
5955;SDS011;3004;48.080;11.600;2023-04-01T05:16:21;65.77;;;2.50;;
5955;SDS011;3004;48.080;11.600;2023-04-01T05:18:50;65.67;;;2.40;;
5955;SDS011;3004;48.080;11.600;2023-04-01T05:21:19;65.37;;;2.33;;
5955;SDS011;3004;48.080;11.600;2023-04-01T05:23:46;65.17;;;2.40;;
5955;SDS011;3004;48.080;11.600;2023-04-01T05:26:13;65.57;;;2.30;;
5955;SDS011;3004;48.080;11.600;2023-04-01T05:28:41;65.10;;;2.30;;
5955;SDS011;3004;48.080;11.600;2023-04-01T05:31:08;65.27;;;2.10;;
5955;SDS011;3004;48.080;11.600;2023-04-01T05:33:35;65.27;;;2.20;;
5955;SDS011;3004;48.080;11.600;2023-04-01T05:36:09;65.17;;;2.13;;
5955;SDS011;3004;48.080;11.600;2023-04-01T05:38:39;65.47;;;1.90;;
5955;SDS011;3004;48.080;11.600;2023-04-01T05:41:07;65.03;;;1.90;;
5955;SDS011;3004;48.080;11.600;2023-04-01T05:43:35;65.23;;;1.90;;
5955;SDS011;3004;48.080;11.600;2023-04-01T05:46:09;65.47;;;1.90;;
5955;SDS011;3004;48.080;11.600;2023-04-01T05:48:36;64.97;;;1.80;;
5955;SDS011;3004;48.080;11.600;2023-04-01T05:51:04;65.07;;;1.80;;
5955;SDS011;3004;48.080;11.600;2023-04-01T05:53:40;65.20;;;2.00;;
5955;SDS011;3004;48.080;11.600;2023-04-01T05:56:08;65.27;;;1.77;;
5955;SDS011;3004;48.080;11.600;2023-04-01T05:58:35;65.47;;;1.80;;
5955;SDS011;3004;48.080;11.600;2023-04-01T06:01:06;65.37;;;1.70;;
5955;SDS011;3004;48.080;11.600;2023-04-01T06:03:36;65.37;;;1.70;;
5955;SDS011;3004;48.080;11.600;2023-04-01T06:06:03;65.47;;;1.70;;
5955;SDS011;3004;48.080;11.600;2023-04-01T06:08:36;65.53;;;1.70;;
5955;SDS011;3004;48.080;11.600;2023-04-01T06:11:07;65.30;;;1.70;;
5955;SDS011;3004;48.080;11.600;2023-04-01T06:13:49;65.30;;;1.70;;
5955;SDS011;3004;48.080;11.600;2023-04-01T06:16:35;65.57;;;1.60;;
5955;SDS011;3004;48.080;11.600;2023-04-01T06:19:15;65.67;;;1.60;;
5955;SDS011;3004;48.080;11.600;2023-04-01T06:22:10;65.60;;;1.53;;
5955;SDS011;3004;48.080;11.600;2023-04-01T06:25:04;65.30;;;1.43;;
5955;SDS011;3004;48.080;11.600;2023-04-01T06:27:53;65.50;;;1.47;;
5955;SDS011;3004;48.080;11.600;2023-04-01T06:30:47;65.07;;;1.40;;
5955;SDS011;3004;48.080;11.600;2023-04-01T06:33:25;65.37;;;1.40;;
5955;SDS011;3004;48.080;11.600;2023-04-01T06:36:29;65.67;;;1.40;;
5955;SDS011;3004;48.080;11.600;2023-04-01T06:39:21;65.60;;;1.40;;
5955;SDS011;3004;48.080;11.600;2023-04-01T06:42:04;65.77;;;1.40;;
5955;SDS011;3004;48.080;11.600;2023-04-01T06:44:49;65.67;;;1.30;;
5955;SDS011;3004;48.080;11.600;2023-04-01T06:47:31;65.97;;;1.50;;
5955;SDS011;3004;48.080;11.600;2023-04-01T06:50:08;65.87;;;1.30;;
5955;SDS011;3004;48.080;11.600;2023-04-01T06:52:50;65.40;;;1.27;;
5955;SDS011;3004;48.080;11.600;2023-04-01T06:55:26;65.87;;;1.30;;
5955;SDS011;3004;48.080;11.600;2023-04-01T06:57:58;65.70;;;1.40;;
5955;SDS011;3004;48.080;11.600;2023-04-01T07:00:31;66.17;;;1.30;;
5955;SDS011;3004;48.080;11.600;2023-04-01T07:03:04;66.07;;;1.20;;
5955;SDS011;3004;48.080;11.600;2023-04-01T07:05:36;66.27;;;1.30;;
5955;SDS011;3004;48.080;11.600;2023-04-01T07:08:06;65.77;;;1.30;;
5955;SDS011;3004;48.080;11.600;2023-04-01T07:10:40;65.80;;;1.30;;
5955;SDS011;3004;48.080;11.600;2023-04-01T07:13:13;65.50;;;1.20;;
5955;SDS011;3004;48.080;11.600;2023-04-01T07:15:48;66.23;;;1.30;;
5955;SDS011;3004;48.080;11.600;2023-04-01T07:18:32;66.07;;;1.30;;
5955;SDS011;3004;48.080;11.600;2023-04-01T07:21:03;66.23;;;1.20;;
5955;SDS011;3004;48.080;11.600;2023-04-01T07:23:38;65.90;;;1.20;;
5955;SDS011;3004;48.080;11.600;2023-04-01T07:26:14;65.70;;;1.30;;
5955;SDS011;3004;48.080;11.600;2023-04-01T07:28:44;66.03;;;1.20;;
5955;SDS011;3004;48.080;11.600;2023-04-01T07:34:44;66.13;;;1.30;;
5955;SDS011;3004;48.080;11.600;2023-04-01T07:37:27;66.10;;;1.30;;
5955;SDS011;3004;48.080;11.600;2023-04-01T07:40:01;66.27;;;1.27;;
5955;SDS011;3004;48.080;11.600;2023-04-01T07:42:43;65.87;;;1.20;;
5955;SDS011;3004;48.080;11.600;2023-04-01T07:45:25;66.57;;;2.13;;
5955;SDS011;3004;48.080;11.600;2023-04-01T07:48:00;65.90;;;1.20;;
5955;SDS011;3004;48.080;11.600;2023-04-01T07:50:38;65.90;;;1.30;;
5955;SDS011;3004;48.080;11.600;2023-04-01T07:53:12;65.97;;;1.20;;
5955;SDS011;3004;48.080;11.600;2023-04-01T07:55:49;65.80;;;1.10;;
5955;SDS011;3004;48.080;11.600;2023-04-01T07:58:22;66.27;;;1.30;;
5955;SDS011;3004;48.080;11.600;2023-04-01T08:01:04;66.17;;;1.20;;
5955;SDS011;3004;48.080;11.600;2023-04-01T08:03:43;66.23;;;1.20;;
5955;SDS011;3004;48.080;11.600;2023-04-01T08:06:31;65.90;;;1.20;;
5955;SDS011;3004;48.080;11.600;2023-04-01T08:09:05;65.60;;;1.20;;
5955;SDS011;3004;48.080;11.600;2023-04-01T08:11:46;66.27;;;1.30;;
5955;SDS011;3004;48.080;11.600;2023-04-01T08:14:26;73.27;;;2.07;;
5955;SDS011;3004;48.080;11.600;2023-04-01T08:17:01;66.00;;;1.27;;
5955;SDS011;3004;48.080;11.600;2023-04-01T08:19:34;66.00;;;1.20;;
5955;SDS011;3004;48.080;11.600;2023-04-01T08:22:16;66.53;;;1.20;;
5955;SDS011;3004;48.080;11.600;2023-04-01T08:24:53;65.90;;;1.20;;
5955;SDS011;3004;48.080;11.600;2023-04-01T08:27:26;65.70;;;1.20;;
5955;SDS011;3004;48.080;11.600;2023-04-01T08:29:58;66.20;;;1.20;;
5955;SDS011;3004;48.080;11.600;2023-04-01T08:32:29;65.97;;;1.20;;
5955;SDS011;3004;48.080;11.600;2023-04-01T08:35:03;65.97;;;1.10;;
5955;SDS011;3004;48.080;11.600;2023-04-01T08:37:45;66.00;;;1.10;;
5955;SDS011;3004;48.080;11.600;2023-04-01T08:40:17;66.57;;;1.20;;
5955;SDS011;3004;48.080;11.600;2023-04-01T08:43:02;66.30;;;1.20;;
5955;SDS011;3004;48.080;11.600;2023-04-01T08:45:43;66.43;;;1.10;;
5955;SDS011;3004;48.080;11.600;2023-04-01T08:48:23;66.37;;;1.10;;
5955;SDS011;3004;48.080;11.600;2023-04-01T08:51:15;66.27;;;1.10;;
5955;SDS011;3004;48.080;11.600;2023-04-01T08:54:14;66.27;;;1.10;;
5955;SDS011;3004;48.080;11.600;2023-04-01T08:57:03;66.27;;;1.20;;
5955;SDS011;3004;48.080;11.600;2023-04-01T08:59:38;66.50;;;1.20;;
5955;SDS011;3004;48.080;11.600;2023-04-01T09:02:39;66.17;;;1.10;;
5955;SDS011;3004;48.080;11.600;2023-04-01T09:05:35;66.53;;;1.10;;
5955;SDS011;3004;48.080;11.600;2023-04-01T09:08:11;66.43;;;1.17;;
5955;SDS011;3004;48.080;11.600;2023-04-01T09:10:53;66.50;;;1.10;;
5955;SDS011;3004;48.080;11.600;2023-04-01T09:13:29;66.30;;;1.20;;
5955;SDS011;3004;48.080;11.600;2023-04-01T09:19:02;66.47;;;1.20;;
5955;SDS011;3004;48.080;11.600;2023-04-01T09:27:31;66.87;;;1.20;;
5955;SDS011;3004;48.080;11.600;2023-04-01T09:33:17;66.50;;;1.20;;
5955;SDS011;3004;48.080;11.600;2023-04-01T09:35:50;66.97;;;1.10;;
5955;SDS011;3004;48.080;11.600;2023-04-01T09:38:34;66.77;;;1.20;;
5955;SDS011;3004;48.080;11.600;2023-04-01T09:41:03;66.60;;;1.20;;
5955;SDS011;3004;48.080;11.600;2023-04-01T09:43:42;66.87;;;1.20;;
5955;SDS011;3004;48.080;11.600;2023-04-01T09:46:32;66.77;;;1.20;;
5955;SDS011;3004;48.080;11.600;2023-04-01T09:49:17;66.60;;;1.30;;
5955;SDS011;3004;48.080;11.600;2023-04-01T09:51:52;66.67;;;1.20;;
5955;SDS011;3004;48.080;11.600;2023-04-01T09:54:27;66.87;;;1.20;;
5955;SDS011;3004;48.080;11.600;2023-04-01T09:59:49;67.47;;;1.50;;
5955;SDS011;3004;48.080;11.600;2023-04-01T10:11:23;66.90;;;1.17;;
5955;SDS011;3004;48.080;11.600;2023-04-01T10:14:05;67.27;;;1.20;;
5955;SDS011;3004;48.080;11.600;2023-04-01T10:16:59;66.70;;;1.20;;
5955;SDS011;3004;48.080;11.600;2023-04-01T10:20:09;67.07;;;1.20;;
5955;SDS011;3004;48.080;11.600;2023-04-01T10:22:44;66.80;;;1.20;;
5955;SDS011;3004;48.080;11.600;2023-04-01T10:25:28;66.63;;;1.20;;
5955;SDS011;3004;48.080;11.600;2023-04-01T10:28:09;67.17;;;1.20;;
5955;SDS011;3004;48.080;11.600;2023-04-01T10:31:13;66.80;;;1.20;;
5955;SDS011;3004;48.080;11.600;2023-04-01T10:42:23;66.90;;;1.20;;
5955;SDS011;3004;48.080;11.600;2023-04-01T10:45:08;66.87;;;1.20;;
5955;SDS011;3004;48.080;11.600;2023-04-01T10:53:33;67.03;;;1.10;;
5955;SDS011;3004;48.080;11.600;2023-04-01T10:59:07;66.60;;;1.20;;
5955;SDS011;3004;48.080;11.600;2023-04-01T11:05:21;66.57;;;1.17;;
5955;SDS011;3004;48.080;11.600;2023-04-01T11:08:03;72.80;;;3.13;;
5955;SDS011;3004;48.080;11.600;2023-04-01T11:10:58;66.53;;;1.10;;
5955;SDS011;3004;48.080;11.600;2023-04-01T11:19:29;66.87;;;1.10;;
5955;SDS011;3004;48.080;11.600;2023-04-01T11:22:20;66.87;;;1.20;;
5955;SDS011;3004;48.080;11.600;2023-04-01T11:25:20;66.47;;;1.20;;
5955;SDS011;3004;48.080;11.600;2023-04-01T11:27:58;66.50;;;1.30;;
5955;SDS011;3004;48.080;11.600;2023-04-01T11:30:38;66.40;;;1.10;;
5955;SDS011;3004;48.080;11.600;2023-04-01T11:33:08;66.70;;;1.20;;
5955;SDS011;3004;48.080;11.600;2023-04-01T11:35:53;66.27;;;1.10;;
5955;SDS011;3004;48.080;11.600;2023-04-01T11:38:35;66.30;;;1.10;;
5955;SDS011;3004;48.080;11.600;2023-04-01T11:41:09;66.27;;;1.20;;
5955;SDS011;3004;48.080;11.600;2023-04-01T11:43:43;66.47;;;1.40;;
5955;SDS011;3004;48.080;11.600;2023-04-01T11:46:21;66.10;;;1.20;;
5955;SDS011;3004;48.080;11.600;2023-04-01T11:48:55;66.17;;;1.30;;
5955;SDS011;3004;48.080;11.600;2023-04-01T11:51:31;65.93;;;1.40;;
5955;SDS011;3004;48.080;11.600;2023-04-01T11:54:06;66.20;;;1.90;;
5955;SDS011;3004;48.080;11.600;2023-04-01T11:56:47;66.37;;;2.20;;
5955;SDS011;3004;48.080;11.600;2023-04-01T11:59:26;66.63;;;2.37;;
5955;SDS011;3004;48.080;11.600;2023-04-01T12:02:07;66.67;;;2.30;;
5955;SDS011;3004;48.080;11.600;2023-04-01T12:04:58;66.50;;;2.40;;
5955;SDS011;3004;48.080;11.600;2023-04-01T12:07:38;66.47;;;2.30;;
5955;SDS011;3004;48.080;11.600;2023-04-01T12:10:12;66.57;;;2.40;;
5955;SDS011;3004;48.080;11.600;2023-04-01T12:12:45;67.27;;;2.60;;
5955;SDS011;3004;48.080;11.600;2023-04-01T12:15:17;66.70;;;2.50;;
5955;SDS011;3004;48.080;11.600;2023-04-01T12:17:48;66.27;;;2.50;;
5955;SDS011;3004;48.080;11.600;2023-04-01T12:20:26;66.47;;;2.50;;
5955;SDS011;3004;48.080;11.600;2023-04-01T12:23:08;66.50;;;2.50;;
5955;SDS011;3004;48.080;11.600;2023-04-01T12:25:47;66.43;;;2.30;;
5955;SDS011;3004;48.080;11.600;2023-04-01T12:28:19;66.00;;;2.40;;
5955;SDS011;3004;48.080;11.600;2023-04-01T12:30:50;66.37;;;2.47;;
5955;SDS011;3004;48.080;11.600;2023-04-01T12:33:37;66.17;;;2.50;;
5955;SDS011;3004;48.080;11.600;2023-04-01T12:36:29;66.97;;;2.73;;
5955;SDS011;3004;48.080;11.600;2023-04-01T12:39:19;67.37;;;2.93;;
5955;SDS011;3004;48.080;11.600;2023-04-01T12:41:59;67.00;;;2.90;;
5955;SDS011;3004;48.080;11.600;2023-04-01T12:44:37;67.10;;;2.83;;
5955;SDS011;3004;48.080;11.600;2023-04-01T12:50:33;67.17;;;2.90;;
5955;SDS011;3004;48.080;11.600;2023-04-01T12:53:32;67.43;;;2.90;;
5955;SDS011;3004;48.080;11.600;2023-04-01T12:56:17;67.33;;;3.10;;
5955;SDS011;3004;48.080;11.600;2023-04-01T12:58:58;67.07;;;3.00;;
5955;SDS011;3004;48.080;11.600;2023-04-01T13:01:52;66.67;;;2.90;;
5955;SDS011;3004;48.080;11.600;2023-04-01T13:07:54;66.90;;;2.73;;
5955;SDS011;3004;48.080;11.600;2023-04-01T13:10:38;66.83;;;3.00;;
5955;SDS011;3004;48.080;11.600;2023-04-01T13:13:46;67.00;;;3.00;;
5955;SDS011;3004;48.080;11.600;2023-04-01T13:16:28;67.40;;;3.17;;
5955;SDS011;3004;48.080;11.600;2023-04-01T13:19:02;67.57;;;3.13;;
5955;SDS011;3004;48.080;11.600;2023-04-01T13:21:36;67.17;;;3.00;;
5955;SDS011;3004;48.080;11.600;2023-04-01T13:24:12;67.10;;;3.10;;
5955;SDS011;3004;48.080;11.600;2023-04-01T13:26:56;67.10;;;3.00;;
5955;SDS011;3004;48.080;11.600;2023-04-01T13:29:33;67.17;;;3.00;;
5955;SDS011;3004;48.080;11.600;2023-04-01T13:32:09;67.10;;;3.00;;
5955;SDS011;3004;48.080;11.600;2023-04-01T13:34:49;67.00;;;3.00;;
5955;SDS011;3004;48.080;11.600;2023-04-01T13:37:36;66.80;;;3.00;;
5955;SDS011;3004;48.080;11.600;2023-04-01T13:40:25;67.47;;;3.20;;
5955;SDS011;3004;48.080;11.600;2023-04-01T13:43:14;67.17;;;3.17;;
5955;SDS011;3004;48.080;11.600;2023-04-01T13:46:08;66.97;;;3.10;;
5955;SDS011;3004;48.080;11.600;2023-04-01T13:48:53;66.90;;;3.10;;
5955;SDS011;3004;48.080;11.600;2023-04-01T13:52:14;67.60;;;3.30;;
5955;SDS011;3004;48.080;11.600;2023-04-01T14:01:23;67.80;;;3.57;;
5955;SDS011;3004;48.080;11.600;2023-04-01T14:04:07;67.50;;;3.40;;
5955;SDS011;3004;48.080;11.600;2023-04-01T14:06:43;67.60;;;3.37;;
5955;SDS011;3004;48.080;11.600;2023-04-01T14:09:19;67.67;;;3.40;;
5955;SDS011;3004;48.080;11.600;2023-04-01T14:12:06;67.70;;;3.50;;
5955;SDS011;3004;48.080;11.600;2023-04-01T14:14:49;68.27;;;3.60;;
5955;SDS011;3004;48.080;11.600;2023-04-01T14:17:46;68.13;;;3.70;;
5955;SDS011;3004;48.080;11.600;2023-04-01T14:20:30;68.37;;;3.70;;
5955;SDS011;3004;48.080;11.600;2023-04-01T14:23:16;67.80;;;3.57;;
5955;SDS011;3004;48.080;11.600;2023-04-01T14:26:03;67.67;;;3.80;;
5955;SDS011;3004;48.080;11.600;2023-04-01T14:29:04;68.23;;;3.90;;
5955;SDS011;3004;48.080;11.600;2023-04-01T14:34:34;68.20;;;3.90;;
5955;SDS011;3004;48.080;11.600;2023-04-01T14:37:09;68.53;;;3.90;;
5955;SDS011;3004;48.080;11.600;2023-04-01T14:48:51;68.30;;;4.00;;
5955;SDS011;3004;48.080;11.600;2023-04-01T14:51:29;68.47;;;3.90;;
5955;SDS011;3004;48.080;11.600;2023-04-01T14:54:02;68.33;;;4.00;;
5955;SDS011;3004;48.080;11.600;2023-04-01T14:59:51;69.03;;;4.17;;
5955;SDS011;3004;48.080;11.600;2023-04-01T15:05:11;68.70;;;4.27;;
5955;SDS011;3004;48.080;11.600;2023-04-01T15:08:02;68.80;;;4.33;;
5955;SDS011;3004;48.080;11.600;2023-04-01T15:10:40;68.43;;;4.10;;
5955;SDS011;3004;48.080;11.600;2023-04-01T15:13:12;68.43;;;4.07;;
5955;SDS011;3004;48.080;11.600;2023-04-01T15:15:47;68.37;;;3.90;;
5955;SDS011;3004;48.080;11.600;2023-04-01T15:18:21;68.27;;;3.97;;
5955;SDS011;3004;48.080;11.600;2023-04-01T15:21:04;68.07;;;3.67;;
5955;SDS011;3004;48.080;11.600;2023-04-01T15:23:43;67.83;;;3.70;;
5955;SDS011;3004;48.080;11.600;2023-04-01T15:26:21;67.63;;;3.40;;
5955;SDS011;3004;48.080;11.600;2023-04-01T15:28:55;66.97;;;3.27;;
5955;SDS011;3004;48.080;11.600;2023-04-01T15:31:26;66.97;;;3.20;;
5955;SDS011;3004;48.080;11.600;2023-04-01T15:36:29;66.43;;;2.90;;
5955;SDS011;3004;48.080;11.600;2023-04-01T15:39:09;68.20;;;3.43;;
5955;SDS011;3004;48.080;11.600;2023-04-01T15:41:40;66.00;;;2.57;;
5955;SDS011;3004;48.080;11.600;2023-04-01T15:47:06;65.80;;;2.50;;
5955;SDS011;3004;48.080;11.600;2023-04-01T15:49:41;65.93;;;2.80;;
5955;SDS011;3004;48.080;11.600;2023-04-01T15:52:21;65.40;;;2.50;;
5955;SDS011;3004;48.080;11.600;2023-04-01T15:55:03;65.60;;;2.40;;
5955;SDS011;3004;48.080;11.600;2023-04-01T15:58:11;65.77;;;2.20;;
5955;SDS011;3004;48.080;11.600;2023-04-01T16:00:45;65.70;;;2.30;;
5955;SDS011;3004;48.080;11.600;2023-04-01T16:03:31;65.40;;;2.10;;
5955;SDS011;3004;48.080;11.600;2023-04-01T16:06:14;65.57;;;2.00;;
5955;SDS011;3004;48.080;11.600;2023-04-01T16:08:51;65.60;;;1.80;;
5955;SDS011;3004;48.080;11.600;2023-04-01T16:11:27;65.77;;;1.80;;
5955;SDS011;3004;48.080;11.600;2023-04-01T16:14:02;65.87;;;1.80;;
5955;SDS011;3004;48.080;11.600;2023-04-01T16:16:34;65.87;;;1.73;;
5955;SDS011;3004;48.080;11.600;2023-04-01T16:19:11;65.40;;;1.80;;
5955;SDS011;3004;48.080;11.600;2023-04-01T16:21:45;65.67;;;1.53;;
5955;SDS011;3004;48.080;11.600;2023-04-01T16:24:24;65.40;;;1.60;;
5955;SDS011;3004;48.080;11.600;2023-04-01T16:30:16;65.37;;;1.60;;
5955;SDS011;3004;48.080;11.600;2023-04-01T16:32:53;66.03;;;1.60;;
5955;SDS011;3004;48.080;11.600;2023-04-01T16:38:11;65.50;;;1.50;;
5955;SDS011;3004;48.080;11.600;2023-04-01T16:41:07;65.67;;;1.63;;
5955;SDS011;3004;48.080;11.600;2023-04-01T16:43:55;65.70;;;1.50;;
5955;SDS011;3004;48.080;11.600;2023-04-01T16:52:13;65.73;;;1.50;;
5955;SDS011;3004;48.080;11.600;2023-04-01T16:54:55;65.57;;;1.30;;
5955;SDS011;3004;48.080;11.600;2023-04-01T16:57:26;65.83;;;1.30;;
5955;SDS011;3004;48.080;11.600;2023-04-01T16:59:57;65.87;;;1.23;;
5955;SDS011;3004;48.080;11.600;2023-04-01T17:08:37;65.40;;;1.30;;
5955;SDS011;3004;48.080;11.600;2023-04-01T17:11:09;65.00;;;1.20;;
5955;SDS011;3004;48.080;11.600;2023-04-01T17:13:50;66.07;;;1.53;;
5955;SDS011;3004;48.080;11.600;2023-04-01T17:28:46;65.97;;;1.20;;
5955;SDS011;3004;48.080;11.600;2023-04-01T17:31:25;65.80;;;1.20;;
5955;SDS011;3004;48.080;11.600;2023-04-01T17:37:04;65.70;;;1.10;;
5955;SDS011;3004;48.080;11.600;2023-04-01T17:42:22;65.80;;;1.47;;
5955;SDS011;3004;48.080;11.600;2023-04-01T17:44:58;65.67;;;1.20;;
5955;SDS011;3004;48.080;11.600;2023-04-01T17:47:40;66.27;;;1.53;;
5955;SDS011;3004;48.080;11.600;2023-04-01T17:50:18;65.77;;;1.20;;
5955;SDS011;3004;48.080;11.600;2023-04-01T17:52:57;65.67;;;1.30;;